sensor_id;sensor_type;location;lat;lon;timestamp;temperature;humidity
43808;DHT22;29438;50.664;10.098;2023-04-15T00:02:22;2.20;92.90
43808;DHT22;29438;50.664;10.098;2023-04-15T00:04:48;2.20;92.80
43808;DHT22;29438;50.664;10.098;2023-04-15T00:07:13;2.10;92.80
43808;DHT22;29438;50.664;10.098;2023-04-15T00:09:40;2.10;92.90
43808;DHT22;29438;50.664;10.098;2023-04-15T00:12:06;2.20;92.90
43808;DHT22;29438;50.664;10.098;2023-04-15T00:14:33;2.10;93.00
43808;DHT22;29438;50.664;10.098;2023-04-15T00:16:59;2.00;93.00
43808;DHT22;29438;50.664;10.098;2023-04-15T00:19:25;2.00;93.00
43808;DHT22;29438;50.664;10.098;2023-04-15T00:21:51;2.00;93.10
43808;DHT22;29438;50.664;10.098;2023-04-15T00:24:16;2.00;93.10
43808;DHT22;29438;50.664;10.098;2023-04-15T00:26:42;2.10;93.10
43808;DHT22;29438;50.664;10.098;2023-04-15T00:29:07;2.20;93.20
43808;DHT22;29438;50.664;10.098;2023-04-15T00:31:33;2.20;93.30
43808;DHT22;29438;50.664;10.098;2023-04-15T00:33:59;2.30;93.30
43808;DHT22;29438;50.664;10.098;2023-04-15T00:36:24;2.30;93.40
43808;DHT22;29438;50.664;10.098;2023-04-15T00:38:50;2.30;93.40
43808;DHT22;29438;50.664;10.098;2023-04-15T00:41:17;2.50;93.50
43808;DHT22;29438;50.664;10.098;2023-04-15T00:43:43;2.70;93.60
43808;DHT22;29438;50.664;10.098;2023-04-15T00:46:09;2.80;93.50
43808;DHT22;29438;50.664;10.098;2023-04-15T00:48:37;2.90;93.40
43808;DHT22;29438;50.664;10.098;2023-04-15T00:51:03;3.00;93.30
43808;DHT22;29438;50.664;10.098;2023-04-15T00:53:29;3.00;93.30
43808;DHT22;29438;50.664;10.098;2023-04-15T00:55:55;2.90;93.20
43808;DHT22;29438;50.664;10.098;2023-04-15T00:58:20;2.90;93.20
43808;DHT22;29438;50.664;10.098;2023-04-15T01:00:46;2.90;93.10
43808;DHT22;29438;50.664;10.098;2023-04-15T01:03:12;3.00;93.10
43808;DHT22;29438;50.664;10.098;2023-04-15T01:05:38;3.00;93.10
43808;DHT22;29438;50.664;10.098;2023-04-15T01:08:04;3.00;93.00
43808;DHT22;29438;50.664;10.098;2023-04-15T01:10:30;3.10;93.00
43808;DHT22;29438;50.664;10.098;2023-04-15T01:12:56;3.10;93.00
43808;DHT22;29438;50.664;10.098;2023-04-15T01:15:22;3.30;93.00
43808;DHT22;29438;50.664;10.098;2023-04-15T01:17:48;3.40;93.00
43808;DHT22;29438;50.664;10.098;2023-04-15T01:20:14;3.50;92.80
43808;DHT22;29438;50.664;10.098;2023-04-15T01:22:41;3.50;92.70
43808;DHT22;29438;50.664;10.098;2023-04-15T01:25:12;3.60;92.70
43808;DHT22;29438;50.664;10.098;2023-04-15T01:27:42;3.70;92.50
43808;DHT22;29438;50.664;10.098;2023-04-15T01:30:08;3.80;92.40
43808;DHT22;29438;50.664;10.098;2023-04-15T01:32:35;3.90;92.30
43808;DHT22;29438;50.664;10.098;2023-04-15T01:35:00;4.00;92.20
43808;DHT22;29438;50.664;10.098;2023-04-15T01:37:26;4.00;91.90
43808;DHT22;29438;50.664;10.098;2023-04-15T01:39:52;4.00;91.70
43808;DHT22;29438;50.664;10.098;2023-04-15T01:42:17;4.10;91.50
43808;DHT22;29438;50.664;10.098;2023-04-15T01:44:43;4.20;91.50
43808;DHT22;29438;50.664;10.098;2023-04-15T01:47:08;4.30;91.50
43808;DHT22;29438;50.664;10.098;2023-04-15T01:49:34;4.40;91.50
43808;DHT22;29438;50.664;10.098;2023-04-15T01:51:59;4.50;91.50
43808;DHT22;29438;50.664;10.098;2023-04-15T01:54:25;4.40;91.40
43808;DHT22;29438;50.664;10.098;2023-04-15T01:56:52;4.30;91.30
43808;DHT22;29438;50.664;10.098;2023-04-15T01:59:17;4.30;91.30
43808;DHT22;29438;50.664;10.098;2023-04-15T02:01:43;4.30;91.30
43808;DHT22;29438;50.664;10.098;2023-04-15T02:04:09;4.30;91.40
43808;DHT22;29438;50.664;10.098;2023-04-15T02:06:43;4.30;91.30
43808;DHT22;29438;50.664;10.098;2023-04-15T02:09:09;4.30;91.30
43808;DHT22;29438;50.664;10.098;2023-04-15T02:11:35;4.20;91.30
43808;DHT22;29438;50.664;10.098;2023-04-15T02:14:02;4.30;91.30
43808;DHT22;29438;50.664;10.098;2023-04-15T02:16:29;4.20;91.30
43808;DHT22;29438;50.664;10.098;2023-04-15T02:18:54;4.20;91.40
43808;DHT22;29438;50.664;10.098;2023-04-15T02:21:20;4.20;91.50
43808;DHT22;29438;50.664;10.098;2023-04-15T02:23:46;4.20;91.50
43808;DHT22;29438;50.664;10.098;2023-04-15T02:26:12;4.30;91.60
43808;DHT22;29438;50.664;10.098;2023-04-15T02:28:38;4.30;91.60
43808;DHT22;29438;50.664;10.098;2023-04-15T02:31:05;4.40;91.70
43808;DHT22;29438;50.664;10.098;2023-04-15T02:33:30;4.50;91.70
43808;DHT22;29438;50.664;10.098;2023-04-15T02:35:56;4.50;91.60
43808;DHT22;29438;50.664;10.098;2023-04-15T02:38:23;4.70;91.60
43808;DHT22;29438;50.664;10.098;2023-04-15T02:40:49;4.70;91.50
43808;DHT22;29438;50.664;10.098;2023-04-15T02:43:15;4.90;91.10
43808;DHT22;29438;50.664;10.098;2023-04-15T02:45:42;4.90;90.90
43808;DHT22;29438;50.664;10.098;2023-04-15T02:48:08;5.00;90.50
43808;DHT22;29438;50.664;10.098;2023-04-15T02:50:33;5.00;90.40
43808;DHT22;29438;50.664;10.098;2023-04-15T02:52:59;5.00;90.30
43808;DHT22;29438;50.664;10.098;2023-04-15T02:55:25;5.00;90.10
43808;DHT22;29438;50.664;10.098;2023-04-15T02:57:51;5.00;89.90
43808;DHT22;29438;50.664;10.098;2023-04-15T03:00:17;5.00;90.10
43808;DHT22;29438;50.664;10.098;2023-04-15T03:02:44;5.00;90.10
43808;DHT22;29438;50.664;10.098;2023-04-15T03:05:11;5.00;90.10
43808;DHT22;29438;50.664;10.098;2023-04-15T03:07:37;5.00;90.00
43808;DHT22;29438;50.664;10.098;2023-04-15T03:10:04;5.00;90.00
43808;DHT22;29438;50.664;10.098;2023-04-15T03:12:30;5.00;90.00
43808;DHT22;29438;50.664;10.098;2023-04-15T03:14:56;5.00;90.00
43808;DHT22;29438;50.664;10.098;2023-04-15T03:17:21;5.00;90.00
43808;DHT22;29438;50.664;10.098;2023-04-15T03:19:47;4.90;90.00
43808;DHT22;29438;50.664;10.098;2023-04-15T03:22:12;5.00;90.10
43808;DHT22;29438;50.664;10.098;2023-04-15T03:24:38;4.90;90.00
43808;DHT22;29438;50.664;10.098;2023-04-15T03:27:03;4.90;90.10
43808;DHT22;29438;50.664;10.098;2023-04-15T03:29:30;4.90;90.00
43808;DHT22;29438;50.664;10.098;2023-04-15T03:31:56;4.90;90.00
43808;DHT22;29438;50.664;10.098;2023-04-15T03:34:21;4.80;90.00
43808;DHT22;29438;50.664;10.098;2023-04-15T03:36:47;4.80;90.10
43808;DHT22;29438;50.664;10.098;2023-04-15T03:39:12;4.80;90.30
43808;DHT22;29438;50.664;10.098;2023-04-15T03:41:38;4.70;90.40
43808;DHT22;29438;50.664;10.098;2023-04-15T03:44:03;4.60;90.50
43808;DHT22;29438;50.664;10.098;2023-04-15T03:46:29;4.60;90.60
43808;DHT22;29438;50.664;10.098;2023-04-15T03:48:54;4.60;90.70
43808;DHT22;29438;50.664;10.098;2023-04-15T03:51:20;4.70;90.70
43808;DHT22;29438;50.664;10.098;2023-04-15T03:53:46;4.60;90.70
43808;DHT22;29438;50.664;10.098;2023-04-15T03:56:12;4.60;90.80
43808;DHT22;29438;50.664;10.098;2023-04-15T03:58:37;4.50;90.80
43808;DHT22;29438;50.664;10.098;2023-04-15T04:01:03;4.50;90.70
43808;DHT22;29438;50.664;10.098;2023-04-15T04:03:28;4.50;90.70
43808;DHT22;29438;50.664;10.098;2023-04-15T04:05:54;4.40;90.70
43808;DHT22;29438;50.664;10.098;2023-04-15T04:08:20;4.40;90.80
43808;DHT22;29438;50.664;10.098;2023-04-15T04:10:46;4.30;90.80
43808;DHT22;29438;50.664;10.098;2023-04-15T04:13:11;4.30;90.90
43808;DHT22;29438;50.664;10.098;2023-04-15T04:15:37;4.30;91.00
43808;DHT22;29438;50.664;10.098;2023-04-15T04:18:02;4.30;91.10
43808;DHT22;29438;50.664;10.098;2023-04-15T04:20:28;4.30;91.10
43808;DHT22;29438;50.664;10.098;2023-04-15T04:22:56;4.30;91.10
43808;DHT22;29438;50.664;10.098;2023-04-15T04:25:21;4.30;91.10
43808;DHT22;29438;50.664;10.098;2023-04-15T04:27:47;4.30;91.20
43808;DHT22;29438;50.664;10.098;2023-04-15T04:30:12;4.30;91.20
43808;DHT22;29438;50.664;10.098;2023-04-15T04:32:38;4.30;91.20
43808;DHT22;29438;50.664;10.098;2023-04-15T04:35:04;4.30;91.30
43808;DHT22;29438;50.664;10.098;2023-04-15T04:37:29;4.30;91.30
43808;DHT22;29438;50.664;10.098;2023-04-15T04:39:55;4.30;91.30
43808;DHT22;29438;50.664;10.098;2023-04-15T04:42:21;4.40;91.40
43808;DHT22;29438;50.664;10.098;2023-04-15T04:44:46;4.40;91.30
43808;DHT22;29438;50.664;10.098;2023-04-15T04:47:12;4.40;91.30
43808;DHT22;29438;50.664;10.098;2023-04-15T04:49:38;4.50;91.30
43808;DHT22;29438;50.664;10.098;2023-04-15T04:52:03;4.50;91.20
43808;DHT22;29438;50.664;10.098;2023-04-15T04:54:29;4.60;91.10
43808;DHT22;29438;50.664;10.098;2023-04-15T04:56:55;4.70;91.10
43808;DHT22;29438;50.664;10.098;2023-04-15T04:59:22;4.70;91.00
43808;DHT22;29438;50.664;10.098;2023-04-15T05:01:48;4.70;90.80
43808;DHT22;29438;50.664;10.098;2023-04-15T05:04:13;4.70;90.70
43808;DHT22;29438;50.664;10.098;2023-04-15T05:06:39;4.80;90.60
43808;DHT22;29438;50.664;10.098;2023-04-15T05:09:04;4.80;90.60
43808;DHT22;29438;50.664;10.098;2023-04-15T05:11:30;4.80;90.40
43808;DHT22;29438;50.664;10.098;2023-04-15T05:13:55;4.80;90.30
43808;DHT22;29438;50.664;10.098;2023-04-15T05:16:22;4.80;90.20
43808;DHT22;29438;50.664;10.098;2023-04-15T05:18:47;4.80;90.10
43808;DHT22;29438;50.664;10.098;2023-04-15T05:21:13;4.90;90.10
43808;DHT22;29438;50.664;10.098;2023-04-15T05:23:39;4.90;90.10
43808;DHT22;29438;50.664;10.098;2023-04-15T05:26:05;4.90;90.10
43808;DHT22;29438;50.664;10.098;2023-04-15T05:28:30;5.00;90.20
43808;DHT22;29438;50.664;10.098;2023-04-15T05:30:56;5.10;90.20
43808;DHT22;29438;50.664;10.098;2023-04-15T05:33:22;5.20;90.00
43808;DHT22;29438;50.664;10.098;2023-04-15T05:35:47;5.20;89.80
43808;DHT22;29438;50.664;10.098;2023-04-15T05:38:13;5.30;89.60
43808;DHT22;29438;50.664;10.098;2023-04-15T05:40:38;5.40;89.60
43808;DHT22;29438;50.664;10.098;2023-04-15T05:43:04;5.50;89.60
43808;DHT22;29438;50.664;10.098;2023-04-15T05:45:30;5.60;89.30
43808;DHT22;29438;50.664;10.098;2023-04-15T05:47:56;5.70;89.30
43808;DHT22;29438;50.664;10.098;2023-04-15T05:50:21;5.80;89.30
43808;DHT22;29438;50.664;10.098;2023-04-15T05:52:47;5.80;89.10
43808;DHT22;29438;50.664;10.098;2023-04-15T05:55:12;5.80;89.00
43808;DHT22;29438;50.664;10.098;2023-04-15T05:57:38;5.90;89.20
43808;DHT22;29438;50.664;10.098;2023-04-15T06:00:04;5.90;89.10
43808;DHT22;29438;50.664;10.098;2023-04-15T06:02:30;6.00;89.10
43808;DHT22;29438;50.664;10.098;2023-04-15T06:04:56;6.00;88.70
43808;DHT22;29438;50.664;10.098;2023-04-15T06:07:22;6.10;88.80
43808;DHT22;29438;50.664;10.098;2023-04-15T06:09:48;6.10;88.50
43808;DHT22;29438;50.664;10.098;2023-04-15T06:12:14;6.20;88.50
43808;DHT22;29438;50.664;10.098;2023-04-15T06:14:40;6.30;88.50
43808;DHT22;29438;50.664;10.098;2023-04-15T06:17:05;6.30;88.30
43808;DHT22;29438;50.664;10.098;2023-04-15T06:19:31;6.30;88.30
43808;DHT22;29438;50.664;10.098;2023-04-15T06:21:57;6.30;87.90
43808;DHT22;29438;50.664;10.098;2023-04-15T06:24:23;6.10;88.20
43808;DHT22;29438;50.664;10.098;2023-04-15T06:26:48;6.10;88.90
43808;DHT22;29438;50.664;10.098;2023-04-15T06:29:14;6.00;89.00
43808;DHT22;29438;50.664;10.098;2023-04-15T06:31:40;6.00;89.20
43808;DHT22;29438;50.664;10.098;2023-04-15T06:34:06;5.90;89.40
43808;DHT22;29438;50.664;10.098;2023-04-15T06:36:31;6.00;89.30
43808;DHT22;29438;50.664;10.098;2023-04-15T06:38:57;5.90;89.30
43808;DHT22;29438;50.664;10.098;2023-04-15T06:41:23;5.90;89.40
43808;DHT22;29438;50.664;10.098;2023-04-15T06:43:48;5.90;89.50
43808;DHT22;29438;50.664;10.098;2023-04-15T06:46:14;5.90;89.40
43808;DHT22;29438;50.664;10.098;2023-04-15T06:48:39;6.00;89.40
43808;DHT22;29438;50.664;10.098;2023-04-15T06:51:05;5.90;89.40
43808;DHT22;29438;50.664;10.098;2023-04-15T06:53:31;5.90;89.30
43808;DHT22;29438;50.664;10.098;2023-04-15T06:55:57;5.90;89.60
43808;DHT22;29438;50.664;10.098;2023-04-15T06:58:22;6.10;89.80
43808;DHT22;29438;50.664;10.098;2023-04-15T07:00:47;6.00;88.90
43808;DHT22;29438;50.664;10.098;2023-04-15T07:03:13;6.00;89.40
43808;DHT22;29438;50.664;10.098;2023-04-15T07:05:39;6.00;89.50
43808;DHT22;29438;50.664;10.098;2023-04-15T07:08:05;6.00;89.70
43808;DHT22;29438;50.664;10.098;2023-04-15T07:10:32;6.00;89.50
43808;DHT22;29438;50.664;10.098;2023-04-15T07:12:58;6.00;89.80
43808;DHT22;29438;50.664;10.098;2023-04-15T07:15:23;5.90;89.70
43808;DHT22;29438;50.664;10.098;2023-04-15T07:17:49;5.90;89.80
43808;DHT22;29438;50.664;10.098;2023-04-15T07:20:15;6.00;90.00
43808;DHT22;29438;50.664;10.098;2023-04-15T07:22:40;6.00;89.90
43808;DHT22;29438;50.664;10.098;2023-04-15T07:25:06;5.90;89.70
43808;DHT22;29438;50.664;10.098;2023-04-15T07:27:32;5.80;89.70
43808;DHT22;29438;50.664;10.098;2023-04-15T07:29:57;5.80;90.20
43808;DHT22;29438;50.664;10.098;2023-04-15T07:32:23;5.90;90.10
43808;DHT22;29438;50.664;10.098;2023-04-15T07:34:48;6.00;89.80
43808;DHT22;29438;50.664;10.098;2023-04-15T07:37:14;6.00;89.90
43808;DHT22;29438;50.664;10.098;2023-04-15T07:39:40;6.00;89.50
43808;DHT22;29438;50.664;10.098;2023-04-15T07:42:06;6.00;89.70
43808;DHT22;29438;50.664;10.098;2023-04-15T07:44:31;5.90;90.00
43808;DHT22;29438;50.664;10.098;2023-04-15T07:46:57;5.90;90.10
43808;DHT22;29438;50.664;10.098;2023-04-15T07:49:22;5.90;90.40
43808;DHT22;29438;50.664;10.098;2023-04-15T07:51:48;5.80;90.30
43808;DHT22;29438;50.664;10.098;2023-04-15T07:54:14;5.80;90.50
43808;DHT22;29438;50.664;10.098;2023-04-15T07:56:40;5.80;90.40
43808;DHT22;29438;50.664;10.098;2023-04-15T07:59:06;5.90;90.60
43808;DHT22;29438;50.664;10.098;2023-04-15T08:01:31;5.90;90.20
43808;DHT22;29438;50.664;10.098;2023-04-15T08:03:58;5.80;90.30
43808;DHT22;29438;50.664;10.098;2023-04-15T08:06:23;5.90;90.40
43808;DHT22;29438;50.664;10.098;2023-04-15T08:08:49;6.00;90.30
43808;DHT22;29438;50.664;10.098;2023-04-15T08:11:14;5.90;90.10
43808;DHT22;29438;50.664;10.098;2023-04-15T08:13:40;6.00;90.30
43808;DHT22;29438;50.664;10.098;2023-04-15T08:16:22;5.90;90.40
43808;DHT22;29438;50.664;10.098;2023-04-15T08:18:50;5.90;90.70
43808;DHT22;29438;50.664;10.098;2023-04-15T08:21:17;5.90;91.00
43808;DHT22;29438;50.664;10.098;2023-04-15T08:23:44;5.90;90.80
43808;DHT22;29438;50.664;10.098;2023-04-15T08:26:10;5.90;90.60
43808;DHT22;29438;50.664;10.098;2023-04-15T08:28:38;6.00;90.80
43808;DHT22;29438;50.664;10.098;2023-04-15T08:31:04;6.10;90.30
43808;DHT22;29438;50.664;10.098;2023-04-15T08:33:30;6.10;90.30
43808;DHT22;29438;50.664;10.098;2023-04-15T08:35:56;6.10;90.50
43808;DHT22;29438;50.664;10.098;2023-04-15T08:38:22;6.10;90.40
43808;DHT22;29438;50.664;10.098;2023-04-15T08:40:48;6.10;90.50
43808;DHT22;29438;50.664;10.098;2023-04-15T08:43:26;6.10;90.60
43808;DHT22;29438;50.664;10.098;2023-04-15T08:45:53;6.30;90.60
43808;DHT22;29438;50.664;10.098;2023-04-15T08:48:20;6.40;89.80
43808;DHT22;29438;50.664;10.098;2023-04-15T08:54:13;6.70;89.60
43808;DHT22;29438;50.664;10.098;2023-04-15T08:56:38;6.60;89.60
43808;DHT22;29438;50.664;10.098;2023-04-15T08:59:05;6.60;89.20
43808;DHT22;29438;50.664;10.098;2023-04-15T09:01:31;6.80;90.00
43808;DHT22;29438;50.664;10.098;2023-04-15T09:03:58;6.50;89.20
43808;DHT22;29438;50.664;10.098;2023-04-15T09:06:24;6.60;89.90
43808;DHT22;29438;50.664;10.098;2023-04-15T09:08:50;6.80;89.40
43808;DHT22;29438;50.664;10.098;2023-04-15T09:11:16;6.70;89.60
43808;DHT22;29438;50.664;10.098;2023-04-15T09:13:42;6.40;89.50
43808;DHT22;29438;50.664;10.098;2023-04-15T09:16:08;6.30;90.00
43808;DHT22;29438;50.664;10.098;2023-04-15T09:18:35;6.30;90.10
43808;DHT22;29438;50.664;10.098;2023-04-15T09:21:07;6.40;90.00
43808;DHT22;29438;50.664;10.098;2023-04-15T09:23:36;6.40;90.20
43808;DHT22;29438;50.664;10.098;2023-04-15T09:26:02;6.40;90.20
43808;DHT22;29438;50.664;10.098;2023-04-15T09:28:28;6.40;90.10
43808;DHT22;29438;50.664;10.098;2023-04-15T09:30:58;6.40;90.40
43808;DHT22;29438;50.664;10.098;2023-04-15T09:33:24;6.30;90.20
43808;DHT22;29438;50.664;10.098;2023-04-15T09:36:04;6.30;90.60
43808;DHT22;29438;50.664;10.098;2023-04-15T09:38:30;6.30;90.70
43808;DHT22;29438;50.664;10.098;2023-04-15T09:40:56;6.30;90.40
43808;DHT22;29438;50.664;10.098;2023-04-15T09:43:25;6.30;90.40
43808;DHT22;29438;50.664;10.098;2023-04-15T09:46:01;6.40;90.50
43808;DHT22;29438;50.664;10.098;2023-04-15T09:48:26;6.50;90.50
43808;DHT22;29438;50.664;10.098;2023-04-15T09:50:57;6.40;90.40
43808;DHT22;29438;50.664;10.098;2023-04-15T09:53:23;6.30;89.80
43808;DHT22;29438;50.664;10.098;2023-04-15T09:55:57;6.30;90.20
43808;DHT22;29438;50.664;10.098;2023-04-15T09:58:28;6.30;90.30
43808;DHT22;29438;50.664;10.098;2023-04-15T10:00:55;6.40;90.30
43808;DHT22;29438;50.664;10.098;2023-04-15T10:03:29;6.50;90.20
43808;DHT22;29438;50.664;10.098;2023-04-15T10:05:57;6.40;90.10
43808;DHT22;29438;50.664;10.098;2023-04-15T10:08:25;6.50;90.40
43808;DHT22;29438;50.664;10.098;2023-04-15T10:10:52;6.50;89.80
43808;DHT22;29438;50.664;10.098;2023-04-15T10:13:20;6.50;90.30
43808;DHT22;29438;50.664;10.098;2023-04-15T10:15:55;6.50;89.80
43808;DHT22;29438;50.664;10.098;2023-04-15T10:18:23;6.60;90.00
43808;DHT22;29438;50.664;10.098;2023-04-15T10:20:49;6.50;90.00
43808;DHT22;29438;50.664;10.098;2023-04-15T10:23:15;6.50;90.10
43808;DHT22;29438;50.664;10.098;2023-04-15T10:25:44;6.50;90.10
43808;DHT22;29438;50.664;10.098;2023-04-15T10:28:10;6.50;90.30
43808;DHT22;29438;50.664;10.098;2023-04-15T10:30:36;6.60;90.20
43808;DHT22;29438;50.664;10.098;2023-04-15T10:33:02;6.60;89.60
43808;DHT22;29438;50.664;10.098;2023-04-15T10:35:31;6.70;89.80
43808;DHT22;29438;50.664;10.098;2023-04-15T10:37:57;6.90;90.00
43808;DHT22;29438;50.664;10.098;2023-04-15T10:40:25;6.80;89.50
43808;DHT22;29438;50.664;10.098;2023-04-15T10:42:56;6.70;89.40
43808;DHT22;29438;50.664;10.098;2023-04-15T10:45:25;6.70;90.00
43808;DHT22;29438;50.664;10.098;2023-04-15T10:47:54;6.70;90.20
43808;DHT22;29438;50.664;10.098;2023-04-15T10:50:19;6.70;89.90
43808;DHT22;29438;50.664;10.098;2023-04-15T10:52:45;6.70;90.00
43808;DHT22;29438;50.664;10.098;2023-04-15T10:55:25;6.60;89.50
43808;DHT22;29438;50.664;10.098;2023-04-15T10:57:58;6.70;90.10
43808;DHT22;29438;50.664;10.098;2023-04-15T11:00:29;6.70;90.20
43808;DHT22;29438;50.664;10.098;2023-04-15T11:03:05;6.70;89.80
43808;DHT22;29438;50.664;10.098;2023-04-15T11:08:07;6.50;90.60
43808;DHT22;29438;50.664;10.098;2023-04-15T11:15:32;6.50;90.80
43808;DHT22;29438;50.664;10.098;2023-04-15T11:20:40;6.60;90.40
43808;DHT22;29438;50.664;10.098;2023-04-15T11:23:07;6.70;90.40
43808;DHT22;29438;50.664;10.098;2023-04-15T11:25:34;6.80;90.70
43808;DHT22;29438;50.664;10.098;2023-04-15T11:28:02;6.90;90.40
43808;DHT22;29438;50.664;10.098;2023-04-15T11:30:29;6.90;90.20
43808;DHT22;29438;50.664;10.098;2023-04-15T11:33:02;6.90;89.50
43808;DHT22;29438;50.664;10.098;2023-04-15T11:35:28;7.00;89.90
43808;DHT22;29438;50.664;10.098;2023-04-15T11:37:53;7.10;89.60
43808;DHT22;29438;50.664;10.098;2023-04-15T11:40:27;7.20;89.40
43808;DHT22;29438;50.664;10.098;2023-04-15T11:43:26;7.20;89.60
43808;DHT22;29438;50.664;10.098;2023-04-15T11:45:59;7.30;89.20
43808;DHT22;29438;50.664;10.098;2023-04-15T11:48:34;7.30;89.30
43808;DHT22;29438;50.664;10.098;2023-04-15T11:51:01;7.50;89.00
43808;DHT22;29438;50.664;10.098;2023-04-15T11:53:47;7.50;88.80
43808;DHT22;29438;50.664;10.098;2023-04-15T11:58:43;7.70;88.70
43808;DHT22;29438;50.664;10.098;2023-04-15T12:01:10;7.70;88.60
43808;DHT22;29438;50.664;10.098;2023-04-15T12:03:39;7.60;87.90
43808;DHT22;29438;50.664;10.098;2023-04-15T12:06:09;7.60;88.10
43808;DHT22;29438;50.664;10.098;2023-04-15T12:11:18;7.50;88.70
43808;DHT22;29438;50.664;10.098;2023-04-15T12:13:45;7.50;89.00
43808;DHT22;29438;50.664;10.098;2023-04-15T12:16:11;7.40;89.20
43808;DHT22;29438;50.664;10.098;2023-04-15T12:18:37;7.30;89.20
43808;DHT22;29438;50.664;10.098;2023-04-15T12:21:10;7.30;89.20
43808;DHT22;29438;50.664;10.098;2023-04-15T12:23:46;7.20;89.50
43808;DHT22;29438;50.664;10.098;2023-04-15T12:26:12;7.20;89.80
43808;DHT22;29438;50.664;10.098;2023-04-15T12:28:40;7.10;89.80
43808;DHT22;29438;50.664;10.098;2023-04-15T12:31:10;7.00;89.70
43808;DHT22;29438;50.664;10.098;2023-04-15T12:33:36;7.10;89.80
43808;DHT22;29438;50.664;10.098;2023-04-15T12:36:02;7.10;89.10
43808;DHT22;29438;50.664;10.098;2023-04-15T12:38:28;6.90;89.50
43808;DHT22;29438;50.664;10.098;2023-04-15T12:40:53;7.10;90.30
43808;DHT22;29438;50.664;10.098;2023-04-15T12:43:19;7.00;90.10
43808;DHT22;29438;50.664;10.098;2023-04-15T12:45:44;7.00;90.10
43808;DHT22;29438;50.664;10.098;2023-04-15T12:48:11;7.20;90.20
43808;DHT22;29438;50.664;10.098;2023-04-15T12:50:37;7.30;90.10
43808;DHT22;29438;50.664;10.098;2023-04-15T12:53:03;7.30;89.70
43808;DHT22;29438;50.664;10.098;2023-04-15T12:55:29;7.20;89.50
43808;DHT22;29438;50.664;10.098;2023-04-15T12:57:55;7.20;89.40
43808;DHT22;29438;50.664;10.098;2023-04-15T13:00:21;7.30;89.70
43808;DHT22;29438;50.664;10.098;2023-04-15T13:02:47;7.30;89.70
43808;DHT22;29438;50.664;10.098;2023-04-15T13:05:13;7.40;89.20
43808;DHT22;29438;50.664;10.098;2023-04-15T13:07:40;7.50;88.70
43808;DHT22;29438;50.664;10.098;2023-04-15T13:10:06;7.60;88.70
43808;DHT22;29438;50.664;10.098;2023-04-15T13:12:32;7.50;88.50
43808;DHT22;29438;50.664;10.098;2023-04-15T13:15:01;7.40;88.40
43808;DHT22;29438;50.664;10.098;2023-04-15T13:17:27;7.30;89.20
43808;DHT22;29438;50.664;10.098;2023-04-15T13:19:52;7.20;89.70
43808;DHT22;29438;50.664;10.098;2023-04-15T13:22:18;7.20;89.70
43808;DHT22;29438;50.664;10.098;2023-04-15T13:24:43;7.10;90.20
43808;DHT22;29438;50.664;10.098;2023-04-15T13:27:09;7.10;90.40
43808;DHT22;29438;50.664;10.098;2023-04-15T13:29:35;7.20;90.70
43808;DHT22;29438;50.664;10.098;2023-04-15T13:32:00;7.20;90.50
43808;DHT22;29438;50.664;10.098;2023-04-15T13:34:26;7.20;90.00
43808;DHT22;29438;50.664;10.098;2023-04-15T13:36:51;7.10;90.20
43808;DHT22;29438;50.664;10.098;2023-04-15T13:39:17;7.20;90.30
43808;DHT22;29438;50.664;10.098;2023-04-15T13:41:42;7.30;90.30
43808;DHT22;29438;50.664;10.098;2023-04-15T13:44:08;7.30;90.40
43808;DHT22;29438;50.664;10.098;2023-04-15T13:46:34;7.40;90.40
43808;DHT22;29438;50.664;10.098;2023-04-15T13:48:59;7.50;90.00
43808;DHT22;29438;50.664;10.098;2023-04-15T13:51:25;7.50;90.20
43808;DHT22;29438;50.664;10.098;2023-04-15T13:53:51;7.60;90.10
43808;DHT22;29438;50.664;10.098;2023-04-15T13:56:16;7.50;89.70
43808;DHT22;29438;50.664;10.098;2023-04-15T13:58:42;7.60;90.20
43808;DHT22;29438;50.664;10.098;2023-04-15T14:01:07;7.80;90.00
43808;DHT22;29438;50.664;10.098;2023-04-15T14:03:34;7.80;89.50
43808;DHT22;29438;50.664;10.098;2023-04-15T14:06:00;7.80;89.30
43808;DHT22;29438;50.664;10.098;2023-04-15T14:08:25;7.90;89.20
43808;DHT22;29438;50.664;10.098;2023-04-15T14:10:51;7.70;89.00
43808;DHT22;29438;50.664;10.098;2023-04-15T14:13:16;7.70;88.60
43808;DHT22;29438;50.664;10.098;2023-04-15T14:15:43;7.80;89.00
43808;DHT22;29438;50.664;10.098;2023-04-15T14:18:09;7.70;89.20
43808;DHT22;29438;50.664;10.098;2023-04-15T14:20:34;7.70;89.70
43808;DHT22;29438;50.664;10.098;2023-04-15T14:23:00;7.60;89.50
43808;DHT22;29438;50.664;10.098;2023-04-15T14:25:26;7.50;89.20
43808;DHT22;29438;50.664;10.098;2023-04-15T14:27:51;7.60;89.20
43808;DHT22;29438;50.664;10.098;2023-04-15T14:30:17;7.60;88.60
43808;DHT22;29438;50.664;10.098;2023-04-15T14:32:43;7.50;88.60
43808;DHT22;29438;50.664;10.098;2023-04-15T14:35:08;7.30;88.90
43808;DHT22;29438;50.664;10.098;2023-04-15T14:37:34;7.30;89.50
43808;DHT22;29438;50.664;10.098;2023-04-15T14:39:59;7.40;90.10
43808;DHT22;29438;50.664;10.098;2023-04-15T14:42:25;7.50;89.90
43808;DHT22;29438;50.664;10.098;2023-04-15T14:44:50;7.30;89.00
43808;DHT22;29438;50.664;10.098;2023-04-15T14:47:16;7.30;88.90
43808;DHT22;29438;50.664;10.098;2023-04-15T14:49:41;7.20;89.60
43808;DHT22;29438;50.664;10.098;2023-04-15T14:52:07;7.30;90.20
43808;DHT22;29438;50.664;10.098;2023-04-15T14:54:32;7.10;89.70
43808;DHT22;29438;50.664;10.098;2023-04-15T14:56:58;7.00;89.90
43808;DHT22;29438;50.664;10.098;2023-04-15T14:59:23;7.10;90.20
43808;DHT22;29438;50.664;10.098;2023-04-15T15:01:49;7.20;90.30
43808;DHT22;29438;50.664;10.098;2023-04-15T15:04:15;7.30;90.40
43808;DHT22;29438;50.664;10.098;2023-04-15T15:06:40;7.30;89.90
43808;DHT22;29438;50.664;10.098;2023-04-15T15:09:06;7.30;89.80
43808;DHT22;29438;50.664;10.098;2023-04-15T15:11:31;7.30;89.80
43808;DHT22;29438;50.664;10.098;2023-04-15T15:13:57;7.30;89.80
43808;DHT22;29438;50.664;10.098;2023-04-15T15:16:23;7.20;90.10
43808;DHT22;29438;50.664;10.098;2023-04-15T15:18:49;7.20;90.20
43808;DHT22;29438;50.664;10.098;2023-04-15T15:21:18;7.10;90.60
43808;DHT22;29438;50.664;10.098;2023-04-15T15:23:44;7.00;90.60
43808;DHT22;29438;50.664;10.098;2023-04-15T15:26:11;7.00;90.40
43808;DHT22;29438;50.664;10.098;2023-04-15T15:28:36;7.00;90.60
43808;DHT22;29438;50.664;10.098;2023-04-15T15:31:02;6.90;90.70
43808;DHT22;29438;50.664;10.098;2023-04-15T15:33:28;7.00;91.30
43808;DHT22;29438;50.664;10.098;2023-04-15T15:35:54;6.90;91.30
43808;DHT22;29438;50.664;10.098;2023-04-15T15:38:19;6.90;91.40
43808;DHT22;29438;50.664;10.098;2023-04-15T15:40:46;6.80;91.60
43808;DHT22;29438;50.664;10.098;2023-04-15T15:43:12;6.90;91.60
43808;DHT22;29438;50.664;10.098;2023-04-15T15:45:37;6.80;91.50